Bruce Crossing, MI (49912)

2:50 AM EST on November 23, 2014 (GMT -0500)
RAWS KENTON MI US | Change Station
CLOSE
Current Station
Personal Weather Station
Location: Nisula, MI
Elevation: 1262 ft
Nearby Weather Stations
Active Advisory: Special Statement

Elev 1262 ft 46.61 °N, 88.91 °W | Updated 54 minutes ago

Overcast
Overcast
34 °F
Feels Like 34 °F
N
2
Wind Variable Wind from South
Gusts 7.0 mph

Today
High -- | Low -- °F
--% Chance of Precip.
Yesterday
High -- | Low -- °F
Precip. -- in
8:09 AM 5:16 PM
New Moon, 1% visible
Pressure 29.61 in
Visibility 0.8 miles
Clouds Overcast 200 ft
Windchill 34 °F
Dew Point 33 °F
Humidity 96%
Rainfall 0.00 in
Snow Depth Not available.
UV 0 out of 12
Pollen .10 out of 12
Air Quality Not available.
Flu Activity Not available.
METAR KLNL 230735Z AUTO 18004KT 3/4SM BR OVC002 02/02 A2961 RMK AO2 T00220022

More Conditions Fewer Conditions

Pressure 29.61 in
Visibility 0.8 miles
Clouds Overcast 200 ft
Windchill 34 °F
Dew Point 33 °F
Humidity 96%
Rainfall 0.00 in
Snow Depth Not available.
UV 0 out of 12
Pollen .10 out of 12
Air Quality Not available.
Flu Activity Not available.
METAR KLNL 230735Z AUTO 18004KT 3/4SM BR OVC002 02/02 A2961 RMK AO2 T00220022

More Conditions Fewer Conditions

10-Day Weather Forecast

Almanac

Astronomy

Nov. 23, 2014 Rise Set
Actual Time
Civil Twilight
Nautical Twilight
Astronomical Twilight
Moon
Length of Visible Light
Length of Day
Tomorrow will be .
, % of the Moon is Illuminated

Today's Extremes

State Highs State Lows

Community

WunderPhotos

Upload Photos

1,773,024 photos uploaded!

WunderBlogs® & News

Nearby

Air Quality

  Air Quality AQ Index Pollutant
Not available.

Snow Depth

Station Depth Elevation

Earthquake Activity

City Distance Mag. Time & Date
Minimum magnitude displayed is 2.5.

Coastal Water Temperatures

Place Temperature

Nearby Weather Stations